createdAt,value
2022-11-19T00:01:32.284Z,25.43
2022-11-19T00:04:05.739Z,23.33
2022-11-19T00:06:32.316Z,24.63
2022-11-19T00:09:05.627Z,24.63
2022-11-19T00:11:51.133Z,22.83
2022-11-19T00:14:24.599Z,22.20
2022-11-19T00:16:51.181Z,22.37
2022-11-19T00:19:24.611Z,21.80
2022-11-19T00:21:51.249Z,23.00
2022-11-19T00:24:24.616Z,21.73
2022-11-19T00:26:57.665Z,21.17
2022-11-19T00:29:30.607Z,21.83
2022-11-19T00:31:57.289Z,20.03
2022-11-19T00:34:30.645Z,19.77
2022-11-19T00:36:57.243Z,21.07
2022-11-19T00:39:30.615Z,20.90
2022-11-19T00:41:57.251Z,20.63
2022-11-19T00:44:36.816Z,19.20
2022-11-19T00:47:04.261Z,18.77
2022-11-19T00:49:37.621Z,18.03
2022-11-19T00:52:04.764Z,17.57
2022-11-19T00:54:38.618Z,17.63
2022-11-19T00:57:05.230Z,17.70
2022-11-19T00:59:38.708Z,16.70
2022-11-19T01:02:05.301Z,18.60
2022-11-19T01:04:38.624Z,18.83
2022-11-19T01:07:05.251Z,16.63
2022-11-19T01:09:38.622Z,17.03
2022-11-19T01:12:05.468Z,16.50
2022-11-19T01:14:38.615Z,16.30
2022-11-19T01:17:05.195Z,16.37
2022-11-19T01:19:38.600Z,15.67
2022-11-19T01:22:05.188Z,15.43
2022-11-19T01:24:38.603Z,15.23
2022-11-19T01:27:25.608Z,14.03
2022-11-19T01:29:58.599Z,15.03
2022-11-19T01:32:25.166Z,12.50
2022-11-19T01:34:59.608Z,12.67
2022-11-19T01:37:26.746Z,14.40
2022-11-19T01:39:59.615Z,13.13
2022-11-19T01:42:51.125Z,12.23
2022-11-19T01:45:38.612Z,12.97
2022-11-19T01:48:14.599Z,12.93
2022-11-19T01:51:01.593Z,12.20
2022-11-19T01:53:34.165Z,11.90
2022-11-19T01:56:10.606Z,11.77
2022-11-19T01:58:43.940Z,12.57
2022-11-19T02:01:17.798Z,11.53
2022-11-19T02:03:44.465Z,11.33
2022-11-19T02:06:18.619Z,10.57
2022-11-19T02:08:48.476Z,11.27
2022-11-19T02:14:33.553Z,10.53
2022-11-19T02:17:57.601Z,12.30
2022-11-19T02:20:45.602Z,10.30
2022-11-19T02:23:48.592Z,11.30
2022-11-19T02:26:23.995Z,10.13
2022-11-19T02:29:19.750Z,10.47
2022-11-19T02:31:56.365Z,10.53
2022-11-19T02:34:47.598Z,11.20
2022-11-19T02:37:25.340Z,11.70
2022-11-19T02:40:05.601Z,11.53
2022-11-19T02:42:54.430Z,11.70
2022-11-19T02:45:41.827Z,10.63
2022-11-19T02:48:14.349Z,10.80
2022-11-19T02:50:59.615Z,12.03
2022-11-19T02:53:26.191Z,10.90
2022-11-19T02:56:17.594Z,10.53
2022-11-19T02:59:17.122Z,12.47
2022-11-19T03:04:39.594Z,10.10
2022-11-19T03:07:23.636Z,11.47
2022-11-19T03:09:55.297Z,10.77
2022-11-19T03:12:37.592Z,10.70
2022-11-19T03:15:58.666Z,11.43
2022-11-19T03:18:44.951Z,10.10
2022-11-19T03:21:41.580Z,12.27
2022-11-19T03:24:20.393Z,11.20
2022-11-19T03:26:58.596Z,12.37
2022-11-19T03:29:36.396Z,12.33
2022-11-19T03:32:14.605Z,12.17
2022-11-19T03:34:43.076Z,11.97
2022-11-19T03:37:17.609Z,11.47
2022-11-19T03:39:47.256Z,10.83
2022-11-19T03:42:24.586Z,11.23
2022-11-19T03:44:58.766Z,11.63
2022-11-19T03:47:37.575Z,10.87
2022-11-19T03:50:23.902Z,9.50
2022-11-19T03:53:02.741Z,10.97
2022-11-19T03:55:51.580Z,10.73
2022-11-19T03:58:24.590Z,11.90
2022-11-19T04:00:51.702Z,11.43
2022-11-19T04:03:24.587Z,11.43
2022-11-19T04:05:51.186Z,11.23
2022-11-19T04:08:24.580Z,11.07
2022-11-19T04:10:51.189Z,11.77
2022-11-19T04:13:24.597Z,12.83
2022-11-19T04:15:51.650Z,12.57
2022-11-19T04:18:24.598Z,13.33
2022-11-19T04:20:51.166Z,14.90
2022-11-19T04:23:24.595Z,13.63
2022-11-19T04:25:51.176Z,14.07
2022-11-19T04:28:31.591Z,13.60
2022-11-19T04:30:58.224Z,13.03
2022-11-19T04:33:31.572Z,13.63
2022-11-19T04:35:58.304Z,12.97
2022-11-19T04:38:31.594Z,13.07
2022-11-19T04:41:04.743Z,11.90
2022-11-19T04:43:37.664Z,12.40
2022-11-19T04:46:04.315Z,12.63
2022-11-19T04:48:37.587Z,12.20
2022-11-19T04:51:04.284Z,13.07
2022-11-19T04:53:30.976Z,12.17
2022-11-19T04:56:03.591Z,12.13
2022-11-19T04:58:30.212Z,11.87
2022-11-19T05:01:03.658Z,12.27
2022-11-19T05:03:30.732Z,11.47
2022-11-19T05:06:03.576Z,12.13
2022-11-19T05:08:30.184Z,11.33
2022-11-19T05:11:03.575Z,11.50
2022-11-19T05:13:30.174Z,10.97
2022-11-19T05:16:03.676Z,11.23
2022-11-19T05:18:36.571Z,11.33
2022-11-19T05:21:09.779Z,11.03
2022-11-19T05:23:36.439Z,11.20
2022-11-19T05:26:09.596Z,12.70
2022-11-19T05:28:42.990Z,12.23
2022-11-19T05:31:16.559Z,14.20
2022-11-19T05:33:43.256Z,16.13
2022-11-19T05:36:16.570Z,17.57
2022-11-19T05:38:43.194Z,19.53
2022-11-19T05:41:16.587Z,19.03
2022-11-19T05:43:43.501Z,17.97
2022-11-19T05:46:16.569Z,18.30
2022-11-19T05:48:43.201Z,19.30
2022-11-19T05:51:21.580Z,21.43
2022-11-19T05:53:48.193Z,19.70
2022-11-19T05:56:21.565Z,20.80
2022-11-19T05:58:48.350Z,20.07
2022-11-19T06:01:21.581Z,19.77
2022-11-19T06:03:48.172Z,18.80
2022-11-19T06:06:21.588Z,18.90
2022-11-19T06:08:49.066Z,17.57
2022-11-19T06:11:54.562Z,19.23
2022-11-19T06:14:23.812Z,19.80
2022-11-19T06:16:57.555Z,19.00
2022-11-19T06:19:24.783Z,18.53
2022-11-19T06:21:58.563Z,17.50
2022-11-19T06:24:25.203Z,16.60
2022-11-19T06:26:58.566Z,17.23
2022-11-19T06:29:31.591Z,15.40
2022-11-19T06:32:04.557Z,16.13
2022-11-19T06:34:31.348Z,16.63
2022-11-19T06:37:05.551Z,15.03
2022-11-19T06:39:32.142Z,13.83
2022-11-19T06:42:25.569Z,14.23
2022-11-19T06:44:52.259Z,13.83
2022-11-19T06:47:25.563Z,13.97
2022-11-19T06:49:52.207Z,13.63
2022-11-19T06:52:25.565Z,13.57
2022-11-19T06:54:52.247Z,13.33
2022-11-19T06:57:25.560Z,14.17
2022-11-19T06:59:52.263Z,13.77
2022-11-19T07:02:25.572Z,12.93
2022-11-19T07:04:52.172Z,15.13
2022-11-19T07:07:25.706Z,13.47
2022-11-19T07:09:58.543Z,13.37
2022-11-19T07:12:31.567Z,13.13
2022-11-19T07:15:03.757Z,13.43
2022-11-19T07:17:37.549Z,14.13
2022-11-19T07:20:05.452Z,13.80
2022-11-19T07:22:38.550Z,13.63
2022-11-19T07:25:05.624Z,16.37
2022-11-19T07:27:38.561Z,13.33
2022-11-19T07:30:12.285Z,14.33
2022-11-19T07:32:45.555Z,14.87
2022-11-19T07:35:12.465Z,15.90
2022-11-19T07:37:45.568Z,15.63
2022-11-19T07:40:14.414Z,16.60
2022-11-19T07:42:56.558Z,15.43
2022-11-19T07:45:23.198Z,15.93
2022-11-19T07:47:56.568Z,14.40
2022-11-19T07:50:23.178Z,16.33
2022-11-19T07:52:56.561Z,14.83
2022-11-19T07:55:23.145Z,15.80
2022-11-19T07:57:56.559Z,15.13
2022-11-19T08:00:23.189Z,15.23
2022-11-19T08:02:56.534Z,16.30
2022-11-19T08:05:23.125Z,17.67
2022-11-19T08:07:49.718Z,18.10
2022-11-19T08:10:22.581Z,17.70
2022-11-19T08:13:03.122Z,17.00
2022-11-19T08:15:40.544Z,15.80
2022-11-19T08:18:19.559Z,16.13
2022-11-19T08:20:48.340Z,14.97
2022-11-19T08:23:15.143Z,15.17
2022-11-19T08:25:50.564Z,13.77
2022-11-19T08:28:23.558Z,14.83
2022-11-19T08:31:04.644Z,13.63
2022-11-19T08:33:37.556Z,13.73
2022-11-19T08:36:04.439Z,13.57
2022-11-19T08:38:35.778Z,12.20
2022-11-19T08:41:30.552Z,12.30
2022-11-19T08:44:06.575Z,10.83
2022-11-19T08:46:39.575Z,12.00
2022-11-19T08:49:06.236Z,11.27
2022-11-19T08:51:40.552Z,10.50
2022-11-19T08:54:07.565Z,10.70
2022-11-19T08:56:40.635Z,10.40
2022-11-19T08:59:13.540Z,10.00
2022-11-19T09:01:46.536Z,9.60
2022-11-19T09:04:13.135Z,10.87
2022-11-19T09:06:46.547Z,9.47
2022-11-19T09:09:13.171Z,10.10
2022-11-19T09:11:46.582Z,9.90
2022-11-19T09:14:13.263Z,10.30
2022-11-19T09:16:46.559Z,9.77
2022-11-19T09:19:13.181Z,8.77
2022-11-19T09:21:46.573Z,10.27
2022-11-19T09:24:13.207Z,7.83
2022-11-19T09:26:51.699Z,8.13
2022-11-19T09:29:25.595Z,7.75
2022-11-19T09:31:58.533Z,7.20
2022-11-19T09:34:25.159Z,7.38
2022-11-19T09:36:58.540Z,7.10
2022-11-19T09:39:25.164Z,6.43
2022-11-19T09:42:13.548Z,6.50
2022-11-19T09:45:04.372Z,6.83
2022-11-19T09:47:37.580Z,7.07
2022-11-19T09:50:30.581Z,7.10
2022-11-19T09:53:15.353Z,6.40
2022-11-19T09:55:52.566Z,6.20
2022-11-19T09:58:31.543Z,6.13
2022-11-19T10:01:06.570Z,6.67
2022-11-19T10:03:34.041Z,6.00
2022-11-19T10:06:35.643Z,6.70
2022-11-19T10:09:30.867Z,6.00
2022-11-19T10:12:32.533Z,5.88
2022-11-19T10:15:21.176Z,6.13
2022-11-19T10:18:15.535Z,5.88
2022-11-19T10:21:01.185Z,5.63
2022-11-19T10:24:18.909Z,5.95
2022-11-19T10:26:57.648Z,5.70
2022-11-19T10:29:43.543Z,5.95
2022-11-19T10:32:35.545Z,5.65
2022-11-19T10:35:15.553Z,5.97
2022-11-19T10:37:58.650Z,6.50
2022-11-19T10:40:39.590Z,6.35
2022-11-19T10:43:35.368Z,6.10
2022-11-19T10:46:12.542Z,6.15
2022-11-19T10:48:46.160Z,6.43
2022-11-19T10:51:30.531Z,6.45
2022-11-19T10:53:57.796Z,6.28
2022-11-19T10:56:44.531Z,6.72
2022-11-19T10:59:18.525Z,6.45
2022-11-19T11:01:54.530Z,5.75
2022-11-19T11:04:23.627Z,5.40
2022-11-19T11:06:58.656Z,7.07
2022-11-19T11:09:29.399Z,6.25
2022-11-19T11:12:22.546Z,6.20
2022-11-19T11:14:52.226Z,5.35
2022-11-19T11:17:30.522Z,5.32
2022-11-19T11:20:17.468Z,5.05
2022-11-19T11:22:56.532Z,4.65
2022-11-19T11:25:28.721Z,3.75
2022-11-19T11:28:14.542Z,3.58
2022-11-19T11:31:04.506Z,4.10
2022-11-19T11:33:42.592Z,3.55
2022-11-19T11:36:14.192Z,4.15
2022-11-19T11:38:55.577Z,3.47
2022-11-19T11:44:39.547Z,4.32
2022-11-19T11:47:15.919Z,3.78
2022-11-19T11:50:21.521Z,4.32
2022-11-19T11:52:51.478Z,3.97
2022-11-19T11:55:30.533Z,4.47
2022-11-19T11:58:00.707Z,5.07
2022-11-19T12:03:09.089Z,3.88
2022-11-19T12:06:16.626Z,3.80
2022-11-19T12:09:06.531Z,5.65
2022-11-19T12:12:01.386Z,4.45
2022-11-19T12:14:45.552Z,3.78
2022-11-19T12:17:25.322Z,3.30
2022-11-19T12:20:13.514Z,4.38
2022-11-19T12:23:19.366Z,3.80
2022-11-19T12:26:08.608Z,3.72
2022-11-19T12:28:58.571Z,4.63
2022-11-19T12:31:52.583Z,5.00
2022-11-19T12:34:56.948Z,4.95
2022-11-19T12:37:42.568Z,4.97
2022-11-19T12:40:38.461Z,4.88
2022-11-19T12:43:25.573Z,4.85
2022-11-19T12:46:20.022Z,5.15
2022-11-19T12:49:35.507Z,5.55
2022-11-19T12:52:41.587Z,5.15
2022-11-19T12:55:40.431Z,6.15
2022-11-19T12:58:44.540Z,5.15
2022-11-19T13:01:23.662Z,5.05
2022-11-19T13:04:24.526Z,5.30
2022-11-19T13:06:57.518Z,5.15
2022-11-19T13:09:58.623Z,6.47
2022-11-19T13:12:37.460Z,6.30
2022-11-19T13:15:21.500Z,5.65
2022-11-19T13:17:54.658Z,5.68
2022-11-19T13:20:30.511Z,5.97
2022-11-19T13:23:05.352Z,4.80
2022-11-19T13:25:43.567Z,5.55
2022-11-19T13:28:36.487Z,6.57
2022-11-19T13:31:16.522Z,5.47
2022-11-19T13:33:52.449Z,6.35
2022-11-19T13:36:48.514Z,5.80
2022-11-19T13:39:48.538Z,5.80
2022-11-19T13:42:43.553Z,6.10
2022-11-19T13:45:17.413Z,6.18
2022-11-19T13:47:58.302Z,6.38
2022-11-19T13:50:39.520Z,6.05
2022-11-19T13:53:19.498Z,7.07
2022-11-19T13:55:46.626Z,6.63
2022-11-19T13:58:30.512Z,6.32
2022-11-19T14:01:08.896Z,6.28
2022-11-19T14:03:57.542Z,8.60
2022-11-19T14:06:53.175Z,6.40
2022-11-19T14:09:37.516Z,6.45
2022-11-19T14:12:22.753Z,6.03
2022-11-19T14:15:31.516Z,6.47
2022-11-19T14:18:31.508Z,5.85
2022-11-19T14:21:48.544Z,7.20
2022-11-19T14:24:52.600Z,6.95
2022-11-19T14:27:22.742Z,5.80
2022-11-19T14:32:46.656Z,6.25
2022-11-19T14:35:26.519Z,7.28
2022-11-19T14:38:16.991Z,6.50
2022-11-19T14:40:51.624Z,7.13
2022-11-19T14:43:43.519Z,11.10
2022-11-19T14:46:10.048Z,8.38
2022-11-19T14:48:46.624Z,9.25
2022-11-19T14:51:16.443Z,10.75
2022-11-19T14:54:07.534Z,9.02
2022-11-19T14:56:37.368Z,9.95
2022-11-19T14:59:21.513Z,12.15
2022-11-19T15:02:06.513Z,8.45
2022-11-19T15:04:40.521Z,8.30
2022-11-19T15:07:24.643Z,8.45
2022-11-19T15:10:32.522Z,7.55
2022-11-19T15:13:22.547Z,7.22
2022-11-19T15:15:51.719Z,7.22
2022-11-19T15:18:27.649Z,6.93
2022-11-19T15:21:04.252Z,8.27
2022-11-19T15:24:07.505Z,7.75
2022-11-19T15:26:50.503Z,7.70
2022-11-19T15:29:35.539Z,8.40
2022-11-19T15:32:12.267Z,8.82
2022-11-19T15:35:10.348Z,9.25
2022-11-19T15:37:48.502Z,8.55
2022-11-19T15:40:37.564Z,9.43
2022-11-19T15:43:04.096Z,8.88
2022-11-19T15:45:45.525Z,9.35
2022-11-19T15:48:59.940Z,9.20
2022-11-19T15:51:33.523Z,9.07
2022-11-19T15:54:07.352Z,9.35
2022-11-19T15:56:55.490Z,11.02
2022-11-19T15:59:23.120Z,11.88
2022-11-19T16:02:11.495Z,11.35
2022-11-19T16:04:39.198Z,11.32
2022-11-19T16:07:15.593Z,10.55
2022-11-19T16:09:48.499Z,10.80
2022-11-19T16:12:48.549Z,12.02
2022-11-19T16:15:38.945Z,12.48
2022-11-19T16:18:30.559Z,12.57
2022-11-19T16:21:03.513Z,10.88
2022-11-19T16:23:37.505Z,11.48
2022-11-19T16:26:04.182Z,15.27
2022-11-19T16:28:37.509Z,24.23
2022-11-19T16:31:12.755Z,11.50
2022-11-19T16:33:46.505Z,11.45
2022-11-19T16:36:18.095Z,11.15
2022-11-19T16:38:56.528Z,11.73
2022-11-19T16:41:43.708Z,11.68
2022-11-19T16:44:24.542Z,10.80
2022-11-19T16:46:51.821Z,10.45
2022-11-19T16:49:46.574Z,11.90
2022-11-19T16:52:39.543Z,12.90
2022-11-19T16:55:24.484Z,12.38
2022-11-19T16:57:54.552Z,11.75
2022-11-19T17:02:57.251Z,16.80
2022-11-19T17:05:35.522Z,13.65
2022-11-19T17:08:19.356Z,13.00
2022-11-19T17:10:52.676Z,13.85
2022-11-19T17:13:19.233Z,13.20
2022-11-19T17:15:47.601Z,13.93
2022-11-19T17:18:40.504Z,12.77
2022-11-19T17:21:19.588Z,13.60
2022-11-19T17:23:57.491Z,14.45
2022-11-19T17:26:27.402Z,13.63
2022-11-19T17:29:30.471Z,13.05
2022-11-19T17:31:57.233Z,13.43
2022-11-19T17:34:38.511Z,12.90
2022-11-19T17:37:08.707Z,13.85
2022-11-19T17:39:41.609Z,12.57
2022-11-19T17:42:34.494Z,13.07
2022-11-19T17:45:10.793Z,13.10
2022-11-19T17:47:44.580Z,11.32
2022-11-19T17:50:17.513Z,12.68
2022-11-19T17:52:44.305Z,11.95
2022-11-19T17:55:21.479Z,12.80
2022-11-19T17:57:48.489Z,13.18
2022-11-19T18:00:22.648Z,12.52
2022-11-19T18:02:49.226Z,13.32
2022-11-19T18:05:19.960Z,12.73
2022-11-19T18:07:55.039Z,12.43
2022-11-19T18:10:22.625Z,17.40
2022-11-19T18:12:55.479Z,15.32
2022-11-19T18:15:22.078Z,13.65
2022-11-19T18:17:55.493Z,15.15
2022-11-19T18:20:22.101Z,13.82
2022-11-19T18:22:55.496Z,14.27
2022-11-19T18:25:22.247Z,14.55
2022-11-19T18:27:55.480Z,15.20
2022-11-19T18:30:28.951Z,14.13
2022-11-19T18:33:02.469Z,15.48
2022-11-19T18:35:30.663Z,15.90
2022-11-19T18:38:03.485Z,15.32
2022-11-19T18:40:30.060Z,14.15
2022-11-19T18:43:21.480Z,15.90
2022-11-19T18:45:48.099Z,15.75
2022-11-19T18:48:21.493Z,13.90
2022-11-19T18:50:48.091Z,15.52
2022-11-19T18:53:21.475Z,14.65
2022-11-19T18:55:48.363Z,14.18
2022-11-19T18:58:21.496Z,15.65
2022-11-19T19:00:48.089Z,15.95
2022-11-19T19:03:21.500Z,17.75
2022-11-19T19:05:48.101Z,17.52
2022-11-19T19:08:21.530Z,18.08
2022-11-19T19:10:48.127Z,18.33
2022-11-19T19:13:21.486Z,17.90
2022-11-19T19:15:48.084Z,18.95
2022-11-19T19:18:21.464Z,18.52
2022-11-19T19:20:48.182Z,18.77
2022-11-19T19:23:21.614Z,18.20
2022-11-19T19:25:48.268Z,17.40
2022-11-19T19:28:14.847Z,18.98
2022-11-19T19:30:48.485Z,18.83
2022-11-19T19:33:21.476Z,17.10
2022-11-19T19:35:48.181Z,18.90
2022-11-19T19:38:21.527Z,18.88
2022-11-19T19:40:48.206Z,19.55
2022-11-19T19:43:21.489Z,18.67
2022-11-19T19:45:49.213Z,19.10
2022-11-19T19:48:22.491Z,19.85
2022-11-19T19:50:52.026Z,20.13
2022-11-19T19:53:18.628Z,21.25
2022-11-19T19:55:51.474Z,19.50
2022-11-19T19:58:18.104Z,20.35
2022-11-19T20:00:51.476Z,17.25
2022-11-19T20:03:18.381Z,17.55
2022-11-19T20:05:56.501Z,16.70
2022-11-19T20:08:23.084Z,18.17
2022-11-19T20:10:56.473Z,19.50
2022-11-19T20:13:29.139Z,17.77
2022-11-19T20:16:03.471Z,17.50
2022-11-19T20:18:31.958Z,17.83
2022-11-19T20:21:07.476Z,17.38
2022-11-19T20:23:34.429Z,17.95
2022-11-19T20:26:30.472Z,16.98
2022-11-19T20:29:05.499Z,16.10
2022-11-19T20:31:46.475Z,16.70
2022-11-19T20:34:13.894Z,16.70
2022-11-19T20:36:47.642Z,17.75
2022-11-19T20:39:14.294Z,18.35
2022-11-19T20:42:06.657Z,18.95
2022-11-19T20:44:33.298Z,17.92
2022-11-19T20:47:02.946Z,18.33
2022-11-19T20:49:39.469Z,17.80
2022-11-19T20:52:14.491Z,17.38
2022-11-19T20:54:48.469Z,16.83
2022-11-19T20:57:21.451Z,15.65
2022-11-19T20:59:48.032Z,16.63
2022-11-19T21:02:21.510Z,16.77
2022-11-19T21:04:48.210Z,17.20
2022-11-19T21:07:22.485Z,16.58
2022-11-19T21:09:49.231Z,15.60
2022-11-19T21:12:22.468Z,16.45
2022-11-19T21:14:49.068Z,16.33
2022-11-19T21:17:28.492Z,16.73
2022-11-19T21:19:55.128Z,16.02
2022-11-19T21:22:28.442Z,14.95
2022-11-19T21:24:55.022Z,15.88
2022-11-19T21:27:28.464Z,15.88
2022-11-19T21:30:01.484Z,16.95
2022-11-19T21:32:41.506Z,16.08
2022-11-19T21:35:08.276Z,15.77
2022-11-19T21:37:41.523Z,15.50
2022-11-19T21:40:08.730Z,16.20
2022-11-19T21:42:42.459Z,15.70
2022-11-19T21:45:09.233Z,16.08
2022-11-19T21:47:42.483Z,17.08
2022-11-19T21:50:09.328Z,16.25
2022-11-19T21:52:42.476Z,14.80
2022-11-19T21:55:09.286Z,17.20
2022-11-19T21:57:42.492Z,15.75
2022-11-19T22:00:10.454Z,15.30
2022-11-19T22:02:43.720Z,16.27
2022-11-19T22:05:10.335Z,17.23
2022-11-19T22:07:37.032Z,17.50
2022-11-19T22:10:10.477Z,17.10
2022-11-19T22:12:43.465Z,15.15
2022-11-19T22:15:11.298Z,15.32
2022-11-19T22:17:45.475Z,16.42
2022-11-19T22:20:12.472Z,15.13
2022-11-19T22:22:53.474Z,17.05
2022-11-19T22:25:20.163Z,16.48
2022-11-19T22:27:53.439Z,15.43
2022-11-19T22:30:40.443Z,16.27
2022-11-19T22:33:13.520Z,15.15
2022-11-19T22:35:40.106Z,14.95
2022-11-19T22:38:13.476Z,16.13
2022-11-19T22:40:40.156Z,15.23
2022-11-19T22:43:13.466Z,16.35
2022-11-19T22:45:44.903Z,15.52
2022-11-19T22:48:18.471Z,15.77
2022-11-19T22:50:45.047Z,15.77
2022-11-19T22:53:18.442Z,15.48
2022-11-19T22:55:45.090Z,14.55
2022-11-19T22:58:18.468Z,15.07
2022-11-19T23:00:48.134Z,14.68
2022-11-19T23:03:22.457Z,14.88
2022-11-19T23:05:53.836Z,14.55
2022-11-19T23:08:21.386Z,16.55
2022-11-19T23:10:54.485Z,15.65
2022-11-19T23:13:33.495Z,16.02
2022-11-19T23:16:13.560Z,16.17
2022-11-19T23:18:55.448Z,14.98
2022-11-19T23:21:27.190Z,16.10
2022-11-19T23:24:00.456Z,16.02
2022-11-19T23:26:29.023Z,16.05
2022-11-19T23:29:02.483Z,16.02
2022-11-19T23:31:38.500Z,18.13
2022-11-19T23:34:12.452Z,15.90
2022-11-19T23:36:40.728Z,15.57
2022-11-19T23:39:10.257Z,15.40
2022-11-19T23:41:43.461Z,16.15
2022-11-19T23:44:10.103Z,15.65
2022-11-19T23:46:43.604Z,15.75
2022-11-19T23:49:10.839Z,15.90
2022-11-19T23:51:38.460Z,17.10
2022-11-19T23:54:12.482Z,16.20
2022-11-19T23:56:45.592Z,16.10
2022-11-19T23:59:12.232Z,15.57
